Time;durP1;ratioP1;P1;durP2;ratioP2;P2;SDS_P1;SDS_P2;PMS_P1;PMS_P2;Temp;Humidity;BMP_temperature;BMP_pressure;BME280_temperature;BME280_humidity;BME280_pressure;Samples;Min_cycle;Max_cycle;Signal;HPM_P1;HPM_P2
2023/07/21 00:02:07;;;;;;;;;;;;;;;26.87;38.08;100603.63;2360611;74;51647;-75
2023/07/21 00:05:13;;;;;;;;;;;;;;;26.87;38.07;100598.20;2363179;74;51546;-75
2023/07/21 00:08:13;;;;;;;;;;;;;;;26.87;38.07;100603.63;2363555;74;22312;-75
2023/07/21 00:11:15;;;;;;;;;;;;;;;26.86;38.05;100601.14;2363972;73;50808;-75
2023/07/21 00:14:16;;;;;;;;;;;;;;;26.86;38.08;100597.07;2397314;74;52322;-75
2023/07/21 00:17:18;;;;;;;;;;;;;;;26.87;38.04;100601.42;2350051;74;51463;-75
2023/07/21 00:20:21;;;;;;;;;;;;;;;26.85;38.07;100593.54;2335473;74;51664;-75
2023/07/21 00:23:24;;;;;;;;;;;;;;;26.85;38.08;100584.58;2361559;74;52372;-75
2023/07/21 00:26:25;;;;;;;;;;;;;;;26.86;38.05;100586.22;2394637;73;52288;-75
2023/07/21 00:29:29;;;;;;;;;;;;;;;26.86;38.05;100582.14;2394785;74;51505;-75
2023/07/21 00:32:31;;;;;;;;;;;;;;;26.84;38.08;100578.30;2362149;74;22371;-75
2023/07/21 00:35:34;;;;;;;;;;;;;;;26.84;38.04;100575.58;2394800;74;51586;-75
2023/07/21 00:38:36;;;;;;;;;;;;;;;26.84;38.06;100574.77;2394587;73;50416;-75
2023/07/21 00:41:37;;;;;;;;;;;;;;;26.83;38.06;100570.41;2394892;74;50684;-75
2023/07/21 00:44:39;;;;;;;;;;;;;;;26.83;38.06;100572.58;2388834;74;52510;-75
2023/07/21 00:47:40;;;;;;;;;;;;;;;26.83;38.05;100569.88;2394889;74;51509;-75
2023/07/21 00:50:44;;;;;;;;;;;;;;;26.83;38.06;100569.05;2389173;73;50283;-75
2023/07/21 00:53:46;;;;;;;;;;;;;;;26.83;38.05;100569.05;2394175;73;51658;-75
2023/07/21 00:56:48;;;;;;;;;;;;;;;26.81;38.08;100568.45;2388597;74;52597;-75
2023/07/21 00:59:50;;;;;;;;;;;;;;;26.81;38.08;100572.53;2393848;74;52459;-75
2023/07/21 01:02:52;;;;;;;;;;;;;;;26.81;38.07;100577.42;2394833;74;51592;-75
2023/07/21 01:05:54;;;;;;;;;;;;;;;26.80;38.07;100570.36;2361175;74;50467;-75
2023/07/21 01:08:56;;;;;;;;;;;;;;;26.80;38.05;100572.25;2394517;74;50263;-74
2023/07/21 01:11:57;;;;;;;;;;;;;;;26.79;38.06;100567.33;2394741;74;51699;-75
2023/07/21 01:14:59;;;;;;;;;;;;;;;26.79;38.05;100574.66;2394842;73;51582;-75
2023/07/21 01:18:01;;;;;;;;;;;;;;;26.80;38.04;100570.36;2394460;73;51498;-75
2023/07/21 01:21:02;;;;;;;;;;;;;;;26.79;38.05;100564.62;2388942;74;52334;-75
2023/07/21 01:24:05;;;;;;;;;;;;;;;26.79;38.06;100570.58;2394662;74;51475;-74
2023/07/21 01:27:07;;;;;;;;;;;;;;;26.78;38.06;100568.95;2393267;74;51443;-75
2023/07/21 01:30:10;;;;;;;;;;;;;;;26.78;38.04;100561.63;2394791;74;51457;-74
2023/07/21 01:33:13;;;;;;;;;;;;;;;26.78;38.06;100564.88;2360204;74;52658;-75
2023/07/21 01:36:16;;;;;;;;;;;;;;;26.77;38.06;100557.77;2394642;73;50384;-75
2023/07/21 01:39:18;;;;;;;;;;;;;;;26.77;38.06;100567.28;2394699;73;51568;-75
2023/07/21 01:42:19;;;;;;;;;;;;;;;26.76;38.07;100565.10;2394866;73;50757;-75
2023/07/21 01:45:21;;;;;;;;;;;;;;;26.76;38.07;100565.10;2388752;74;50963;-74
2023/07/21 01:48:24;;;;;;;;;;;;;;;26.76;38.06;100568.36;2360417;74;50669;-75
2023/07/21 01:51:26;;;;;;;;;;;;;;;26.76;38.06;100567.00;2361539;74;51628;-74
2023/07/21 01:54:33;;;;;;;;;;;;;;;26.73;38.10;100565.59;2394687;73;51584;-74
2023/07/21 01:57:35;;;;;;;;;;;;;;;26.75;38.07;100565.36;2360934;74;49651;-74
2023/07/21 02:00:38;;;;;;;;;;;;;;;26.75;38.07;100568.08;2394928;74;51481;-75
2023/07/21 02:03:39;;;;;;;;;;;;;;;26.74;38.08;100572.66;2395955;73;50353;-75
2023/07/21 02:06:41;;;;;;;;;;;;;;;26.73;38.08;100568.30;2396961;74;51550;-75
2023/07/21 02:09:43;;;;;;;;;;;;;;;26.73;38.08;100570.20;2363802;74;50397;-75
2023/07/21 02:12:45;;;;;;;;;;;;;;;26.71;38.09;100569.89;2363703;73;51514;-75
2023/07/21 02:15:47;;;;;;;;;;;;;;;26.72;38.05;100568.02;2397213;73;50215;-75
2023/07/21 02:18:48;;;;;;;;;;;;;;;26.71;38.08;100575.31;2393551;73;51498;-75
2023/07/21 02:21:50;;;;;;;;;;;;;;;26.71;38.06;100579.38;2394875;74;51426;-76
2023/07/21 02:24:51;;;;;;;;;;;;;;;26.70;38.09;100572.31;2361147;74;50420;-75
2023/07/21 02:27:53;;;;;;;;;;;;;;;26.70;38.09;100570.96;2394620;74;50257;-76
2023/07/21 02:31:02;;;;;;;;;;;;;;;26.69;38.11;100573.39;2361217;74;50240;-76
2023/07/21 02:34:02;;;;;;;;;;;;;;;26.69;38.11;100571.19;2395011;73;22289;-75
2023/07/21 02:37:03;;;;;;;;;;;;;;;26.70;38.10;100566.07;2394447;74;51498;-75
2023/07/21 02:40:06;;;;;;;;;;;;;;;26.69;38.08;100557.62;2361183;74;51575;-75
2023/07/21 02:43:09;;;;;;;;;;;;;;;26.69;38.08;100563.05;2394754;74;50493;-74
2023/07/21 02:46:11;;;;;;;;;;;;;;;26.69;38.09;100567.12;2387954;74;50102;-75
2023/07/21 02:49:13;;;;;;;;;;;;;;;26.68;38.07;100560.88;2360851;74;50336;-75
2023/07/21 02:52:15;;;;;;;;;;;;;;;26.69;38.07;100559.83;2394756;74;51550;-74
2023/07/21 02:55:17;;;;;;;;;;;;;;;26.68;38.07;100554.08;2361200;74;51478;-75
2023/07/21 02:58:18;;;;;;;;;;;;;;;26.68;38.07;100558.70;2334439;74;50986;-75
2023/07/21 03:01:20;;;;;;;;;;;;;;;26.66;38.08;100549.42;2394755;74;51431;-75
2023/07/21 03:04:22;;;;;;;;;;;;;;;26.67;38.11;100552.45;2394635;74;51469;-75
2023/07/21 03:07:24;;;;;;;;;;;;;;;26.66;38.05;100553.49;2394512;74;51554;-75
2023/07/21 03:10:26;;;;;;;;;;;;;;;26.66;38.10;100549.95;2394601;74;50638;-75
2023/07/21 03:13:28;;;;;;;;;;;;;;;26.66;38.08;100545.35;2361152;74;51517;-75
2023/07/21 03:16:29;;;;;;;;;;;;;;;26.66;38.08;100545.89;2391076;74;50282;-75
2023/07/21 03:19:31;;;;;;;;;;;;;;;26.65;38.08;100546.42;2381089;73;50767;-74
2023/07/21 03:22:32;;;;;;;;;;;;;;;26.65;38.08;100544.25;2389502;74;52543;-74
2023/07/21 03:25:34;;;;;;;;;;;;;;;26.64;38.10;100539.36;2394638;73;51479;-74
2023/07/21 03:28:38;;;;;;;;;;;;;;;26.64;38.09;100548.86;2394529;74;50527;-75
2023/07/21 03:31:39;;;;;;;;;;;;;;;26.64;38.09;100543.94;2394674;74;51576;-74
2023/07/21 03:34:41;;;;;;;;;;;;;;;26.64;38.08;100548.86;2334658;74;52451;-75
2023/07/21 03:37:42;;;;;;;;;;;;;;;26.64;38.08;100554.80;2394499;74;51546;-75
2023/07/21 03:40:44;;;;;;;;;;;;;;;26.63;38.11;100555.33;2394664;74;51479;-75
2023/07/21 03:43:46;;;;;;;;;;;;;;;26.62;38.12;100548.27;2361162;74;51503;-75
2023/07/21 03:46:47;;;;;;;;;;;;;;;26.63;38.09;100551.80;2388739;74;51367;-75
2023/07/21 03:49:50;;;;;;;;;;;;;;;26.63;38.09;100551.27;2361845;74;50284;-74
2023/07/21 03:52:51;;;;;;;;;;;;;;;26.63;38.10;100555.33;2361378;74;51627;-74
2023/07/21 03:55:53;;;;;;;;;;;;;;;26.62;38.08;100546.91;2394609;74;51539;-75
2023/07/21 03:58:55;;;;;;;;;;;;;;;26.62;38.09;100552.34;2388413;74;52392;-75
2023/07/21 04:01:56;;;;;;;;;;;;;;;26.62;38.07;100549.63;2361262;74;51702;-75
2023/07/21 04:04:58;;;;;;;;;;;;;;;26.60;38.10;100551.75;2394653;74;50595;-76
2023/07/21 04:08:00;;;;;;;;;;;;;;;26.62;38.11;100548.80;2394561;73;50356;-76
2023/07/21 04:11:01;;;;;;;;;;;;;;;26.62;38.10;100542.84;2334468;74;51099;-74
2023/07/21 04:14:03;;;;;;;;;;;;;;;26.62;38.10;100539.31;2361169;74;50682;-75
2023/07/21 04:17:05;;;;;;;;;;;;;;;26.62;38.10;100537.41;2394543;74;51452;-74
2023/07/21 04:20:09;;;;;;;;;;;;;;;26.62;38.08;100530.62;2361966;74;50749;-75
2023/07/21 04:23:10;;;;;;;;;;;;;;;26.62;38.08;100525.20;2394864;73;22343;-75
2023/07/21 04:26:15;;;;;;;;;;;;;;;26.62;38.10;100531.17;2360944;74;50412;-75
2023/07/21 04:29:15;;;;;;;;;;;;;;;26.62;38.09;100532.52;2394870;74;22378;-75
2023/07/21 04:32:16;;;;;;;;;;;;;;;26.62;38.10;100531.98;2361206;74;51597;-75
2023/07/21 04:35:18;;;;;;;;;;;;;;;26.62;38.10;100529.81;2388945;74;52514;-75
2023/07/21 04:38:20;;;;;;;;;;;;;;;26.62;38.10;100525.20;2394455;74;50768;-75
2023/07/21 04:41:21;;;;;;;;;;;;;;;26.61;38.12;100530.31;2394764;74;51425;-74
2023/07/21 04:44:23;;;;;;;;;;;;;;;26.62;38.11;100537.41;2361197;74;51403;-76
2023/07/21 04:47:24;;;;;;;;;;;;;;;26.62;38.12;100527.91;2388692;74;52383;-75
2023/07/21 04:50:26;;;;;;;;;;;;;;;26.62;38.12;100529.27;2359853;74;51455;-74
2023/07/21 04:53:28;;;;;;;;;;;;;;;26.62;38.10;100524.38;2361101;74;50653;-74
2023/07/21 04:56:29;;;;;;;;;;;;;;;26.63;38.12;100521.95;2360986;74;51592;-75
2023/07/21 04:59:31;;;;;;;;;;;;;;;26.62;38.20;100523.84;2334468;74;53015;-75
2023/07/21 05:02:32;;;;;;;;;;;;;;;26.66;38.15;100530.42;2394801;73;51528;-76
2023/07/21 05:05:34;;;;;;;;;;;;;;;26.66;38.15;100528.25;2361242;74;51378;-75
2023/07/21 05:08:36;;;;;;;;;;;;;;;26.61;38.25;100522.72;2394500;74;51536;-75
2023/07/21 05:11:38;;;;;;;;;;;;;;;26.61;38.21;100518.11;2334726;74;52501;-75
2023/07/21 05:14:39;;;;;;;;;;;;;;;26.61;38.18;100518.11;2361230;74;51466;-75
2023/07/21 05:17:41;;;;;;;;;;;;;;;26.62;38.15;100517.59;2361173;74;50411;-74
2023/07/21 05:20:42;;;;;;;;;;;;;;;26.61;38.17;100514.57;2395580;74;51656;-74
2023/07/21 05:23:44;;;;;;;;;;;;;;;26.61;38.18;100514.03;2394769;74;50747;-75
2023/07/21 05:26:46;;;;;;;;;;;;;;;26.60;38.17;100517.00;2394551;74;50277;-74
2023/07/21 05:29:48;;;;;;;;;;;;;;;26.60;38.16;100515.65;2361435;74;51642;-74
2023/07/21 05:32:50;;;;;;;;;;;;;;;26.58;38.17;100517.77;2394633;74;51608;-74
2023/07/21 05:35:51;;;;;;;;;;;;;;;26.58;38.17;100510.45;2388724;74;51171;-74
2023/07/21 05:38:53;;;;;;;;;;;;;;;26.57;38.17;100510.70;2360735;74;50683;-74
2023/07/21 05:41:58;;;;;;;;;;;;;;;26.58;38.16;100514.52;2361100;74;51315;-75
2023/07/21 05:45:00;;;;;;;;;;;;;;;26.56;38.18;100509.86;2394763;73;51563;-75
2023/07/21 05:48:01;;;;;;;;;;;;;;;26.59;38.15;100509.41;2331035;74;51581;-74
2023/07/21 05:51:03;;;;;;;;;;;;;;;26.56;38.16;100500.36;2395525;74;51459;-75
2023/07/21 05:54:05;;;;;;;;;;;;;;;26.55;38.16;100498.72;2361041;74;51471;-74
2023/07/21 05:57:06;;;;;;;;;;;;;;;26.57;38.15;100512.06;2360944;74;50409;-74
2023/07/21 06:00:12;;;;;;;;;;;;;;;26.57;38.16;100510.17;2334711;74;51077;-74
2023/07/21 06:03:12;;;;;;;;;;;;;;;26.56;38.17;100508.50;2394975;73;22312;-75
2023/07/21 06:06:14;;;;;;;;;;;;;;;26.56;38.17;100507.14;2394471;73;50417;-75
2023/07/21 06:09:15;;;;;;;;;;;;;;;26.56;38.17;100509.86;2394660;73;50765;-74
2023/07/21 06:12:17;;;;;;;;;;;;;;;26.57;38.19;100516.95;2335298;74;50148;-75
2023/07/21 06:15:19;;;;;;;;;;;;;;;26.56;38.17;100515.28;2395115;74;50318;-76
2023/07/21 06:18:20;;;;;;;;;;;;;;;26.56;38.19;100518.00;2360955;74;50142;-75
2023/07/21 06:21:22;;;;;;;;;;;;;;;26.57;38.17;100507.45;2394794;74;50364;-75
2023/07/21 06:24:24;;;;;;;;;;;;;;;26.56;38.17;100511.22;2334513;74;51644;-75
2023/07/21 06:27:27;;;;;;;;;;;;;;;26.55;38.20;100525.04;2394533;74;50323;-76
2023/07/21 06:30:29;;;;;;;;;;;;;;;26.55;38.21;100523.14;2361538;74;51681;-75
2023/07/21 06:33:31;;;;;;;;;;;;;;;26.55;38.19;100519.08;2394677;74;50282;-75
2023/07/21 06:36:32;;;;;;;;;;;;;;;26.55;38.18;100515.54;2334340;74;51540;-75
2023/07/21 06:39:34;;;;;;;;;;;;;;;26.55;38.17;100516.36;2361082;74;51572;-73
2023/07/21 06:42:36;;;;;;;;;;;;;;;26.54;38.17;100506.58;2361421;74;50080;-76
2023/07/21 06:45:39;;;;;;;;;;;;;;;26.53;38.22;100505.45;2394662;74;51552;-73
2023/07/21 06:48:41;;;;;;;;;;;;;;;26.52;38.22;100500.56;2388384;74;49677;-74
2023/07/21 06:51:43;;;;;;;;;;;;;;;26.53;38.21;100507.63;2361101;74;50776;-73
2023/07/21 06:54:44;;;;;;;;;;;;;;;26.53;38.22;100504.91;2394616;74;50400;-74
2023/07/21 06:57:46;;;;;;;;;;;;;;;26.52;38.22;100503.28;2394424;74;51502;-74
2023/07/21 07:00:48;;;;;;;;;;;;;;;26.52;38.22;100510.06;2388734;74;51757;-74
2023/07/21 07:03:49;;;;;;;;;;;;;;;26.51;38.23;100504.30;2394735;74;51602;-74
2023/07/21 07:06:52;;;;;;;;;;;;;;;26.49;38.24;100509.98;2360892;74;51537;-74
2023/07/21 07:09:54;;;;;;;;;;;;;;;26.50;38.25;100513.51;2394743;74;50336;-74
2023/07/21 07:12:55;;;;;;;;;;;;;;;26.51;38.22;100504.30;2335275;73;51249;-75
2023/07/21 07:15:57;;;;;;;;;;;;;;;26.52;38.20;100493.78;2397096;73;50752;-74
2023/07/21 07:18:58;;;;;;;;;;;;;;;26.50;38.21;100499.94;2396887;73;51461;-74
2023/07/21 07:22:00;;;;;;;;;;;;;;;26.50;38.21;100504.02;2396978;73;51423;-75
2023/07/21 07:25:02;;;;;;;;;;;;;;;26.49;38.24;100510.52;2390865;74;50993;-75
2023/07/21 07:28:04;;;;;;;;;;;;;;;26.49;38.23;100509.16;2390886;73;51461;-75
2023/07/21 07:31:06;;;;;;;;;;;;;;;26.49;38.22;100509.16;2391301;73;50441;-74
2023/07/21 07:34:08;;;;;;;;;;;;;;;26.49;38.21;100507.27;2397002;73;52331;-75
2023/07/21 07:37:09;;;;;;;;;;;;;;;26.48;38.21;100513.73;2396595;73;50244;-75
2023/07/21 07:40:11;;;;;;;;;;;;;;;26.50;38.21;100511.61;2394761;73;50296;-75
2023/07/21 07:43:13;;;;;;;;;;;;;;;26.52;38.17;100507.34;2396226;74;51548;-75
2023/07/21 07:46:17;;;;;;;;;;;;;;;26.53;38.14;100501.38;2396795;73;50704;-75
2023/07/21 07:49:18;;;;;;;;;;;;;;;26.54;38.16;100500.30;2397307;74;23026;-75
2023/07/21 07:52:20;;;;;;;;;;;;;;;26.55;38.14;100503.33;2397040;73;51474;-75
2023/07/21 07:55:22;;;;;;;;;;;;;;;26.55;38.15;100497.91;2390877;74;51649;-75
2023/07/21 07:58:23;;;;;;;;;;;;;;;26.58;38.14;100494.16;2390770;73;51406;-75
2023/07/21 08:01:26;;;;;;;;;;;;;;;26.58;38.18;100498.23;2390934;73;52569;-75
2023/07/21 08:04:27;;;;;;;;;;;;;;;26.58;38.20;100498.23;2396980;73;50407;-75
2023/07/21 08:07:29;;;;;;;;;;;;;;;26.58;38.26;100495.52;2391014;74;50504;-75
2023/07/21 08:10:31;;;;;;;;;;;;;;;26.57;38.34;100495.24;2388018;73;52144;-75
2023/07/21 08:13:33;;;;;;;;;;;;;;;26.55;38.37;100489.77;2363106;74;51975;-74
2023/07/21 08:16:36;;;;;;;;;;;;;;;26.54;38.39;100487.59;2391324;73;50391;-75
2023/07/21 08:19:37;;;;;;;;;;;;;;;26.55;38.35;100487.87;2397309;74;51545;-75
2023/07/21 08:22:39;;;;;;;;;;;;;;;26.56;38.32;100482.72;2391354;73;49709;-75
2023/07/21 08:25:41;;;;;;;;;;;;;;;26.56;38.30;100480.55;2391011;73;51721;-75
2023/07/21 08:28:42;;;;;;;;;;;;;;;26.57;38.30;100476.25;2390960;74;50336;-75
2023/07/21 08:31:44;;;;;;;;;;;;;;;26.59;38.30;100473.27;2397103;73;50775;-75
2023/07/21 08:34:46;;;;;;;;;;;;;;;26.58;38.29;100477.88;2397114;73;50638;-74
2023/07/21 08:37:47;;;;;;;;;;;;;;;26.58;38.30;100475.17;2363162;73;52477;-75
2023/07/21 08:40:50;;;;;;;;;;;;;;;26.57;38.33;100478.14;2393549;74;51563;-75
2023/07/21 08:43:51;;;;;;;;;;;;;;;26.58;38.33;100482.49;2396394;74;50698;-75
2023/07/21 08:46:53;;;;;;;;;;;;;;;26.57;38.36;100486.28;2396882;73;51563;-75
2023/07/21 08:49:54;;;;;;;;;;;;;;;26.56;38.35;100479.19;2396954;73;51679;-75
2023/07/21 08:52:56;;;;;;;;;;;;;;;26.55;38.37;100483.80;2391122;74;51489;-74
2023/07/21 08:55:58;;;;;;;;;;;;;;;26.55;38.36;100479.73;2397038;73;51410;-75
2023/07/21 08:59:00;;;;;;;;;;;;;;;26.55;38.38;100484.34;2396966;73;51707;-75
2023/07/21 09:02:01;;;;;;;;;;;;;;;26.55;38.37;100482.98;2363513;74;52332;-75
2023/07/21 09:05:04;;;;;;;;;;;;;;;26.54;38.37;100483.52;2391207;73;51489;-75
2023/07/21 09:08:07;;;;;;;;;;;;;;;26.52;38.36;100482.92;2397039;73;51597;-75
2023/07/21 09:11:09;;;;;;;;;;;;;;;26.54;38.34;100480.80;2395568;73;52408;-75
2023/07/21 09:14:10;;;;;;;;;;;;;;;26.52;38.34;100476.14;2391308;74;50284;-75
2023/07/21 09:17:12;;;;;;;;;;;;;;;26.53;38.37;100480.49;2396782;73;50310;-75
2023/07/21 09:20:14;;;;;;;;;;;;;;;26.54;38.37;100488.09;2397190;73;51494;-75
2023/07/21 09:23:17;;;;;;;;;;;;;;;26.53;38.37;100476.42;2391124;74;51648;-74
2023/07/21 09:26:21;;;;;;;;;;;;;;;26.54;38.32;100469.95;2362976;74;52753;-74
2023/07/21 09:29:23;;;;;;;;;;;;;;;26.54;38.33;100475.88;2397106;73;50373;-74
2023/07/21 09:32:24;;;;;;;;;;;;;;;26.53;38.33;100468.82;2391234;74;50441;-74
2023/07/21 09:35:26;;;;;;;;;;;;;;;26.52;38.33;100473.43;2397100;74;50038;-75
2023/07/21 09:38:27;;;;;;;;;;;;;;;26.52;38.35;100463.94;2363248;73;51698;-75
2023/07/21 09:41:30;;;;;;;;;;;;;;;26.52;38.36;100468.00;2391159;74;51672;-75
2023/07/21 09:44:32;;;;;;;;;;;;;;;26.53;38.38;100470.18;2389496;74;51611;-75
2023/07/21 09:47:34;;;;;;;;;;;;;;;26.53;38.35;100468.28;2394577;74;50252;-75
2023/07/21 09:50:35;;;;;;;;;;;;;;;26.54;38.35;100466.39;2334558;74;52545;-74
2023/07/21 09:53:38;;;;;;;;;;;;;;;26.57;38.31;100465.39;2394776;74;51596;-74
2023/07/21 09:56:40;;;;;;;;;;;;;;;26.56;38.33;100461.02;2361072;74;51687;-75
2023/07/21 09:59:41;;;;;;;;;;;;;;;26.55;38.36;100462.09;2394721;74;50458;-74
2023/07/21 10:02:45;;;;;;;;;;;;;;;26.55;38.36;100467.52;2394712;74;50398;-74
2023/07/21 10:05:46;;;;;;;;;;;;;;;26.57;38.36;100469.46;2361361;74;50294;-75
2023/07/21 10:08:48;;;;;;;;;;;;;;;26.56;38.33;100466.44;2361049;74;50670;-75
2023/07/21 10:11:49;;;;;;;;;;;;;;;26.55;38.35;100459.38;2389995;74;51510;-75
2023/07/21 10:14:51;;;;;;;;;;;;;;;26.57;38.36;100461.86;2361490;74;51081;-75
2023/07/21 10:17:55;;;;;;;;;;;;;;;26.58;38.34;100456.17;2394449;74;50703;-74
2023/07/21 10:20:57;;;;;;;;;;;;;;;26.58;38.34;100460.78;2386519;74;50325;-75
2023/07/21 10:24:02;;;;;;;;;;;;;;;26.58;38.34;100448.03;2361267;74;51488;-75
2023/07/21 10:27:09;;;;;;;;;;;;;;;26.59;38.33;100447.49;2334260;74;50133;-74
2023/07/21 10:30:21;;;;;;;;;;;;;;;26.59;38.29;100446.98;2361025;74;22201;-75
2023/07/21 10:33:24;;;;;;;;;;;;;;;26.59;38.29;100442.91;2394703;74;50360;-75
2023/07/21 10:36:25;;;;;;;;;;;;;;;26.59;38.30;100439.35;2393477;74;50429;-75
2023/07/21 10:39:28;;;;;;;;;;;;;;;26.57;38.34;100430.11;2394809;73;50433;-75
2023/07/21 10:42:29;;;;;;;;;;;;;;;26.59;38.33;100433.41;2349212;74;50993;-75
2023/07/21 10:45:31;;;;;;;;;;;;;;;26.59;38.32;100429.86;2394696;74;50299;-75
2023/07/21 10:48:33;;;;;;;;;;;;;;;26.58;38.33;100430.39;2394396;73;50328;-75
2023/07/21 10:51:35;;;;;;;;;;;;;;;26.60;38.28;100422.84;2394609;74;51532;-75
2023/07/21 10:54:37;;;;;;;;;;;;;;;26.59;38.32;100422.56;2388439;74;50837;-75
2023/07/21 10:57:38;;;;;;;;;;;;;;;26.61;38.29;100417.69;2360777;74;51514;-75
2023/07/21 11:00:45;;;;;;;;;;;;;;;26.61;38.26;100409.55;2394689;74;51448;-75
2023/07/21 11:03:47;;;;;;;;;;;;;;;26.59;38.30;100415.78;2394638;74;51599;-75
2023/07/21 11:06:50;;;;;;;;;;;;;;;26.59;38.32;100416.28;2388458;74;51691;-75
2023/07/21 11:09:55;;;;;;;;;;;;;;;26.58;38.33;100405.97;2360086;74;51513;-75
2023/07/21 11:12:55;;;;;;;;;;;;;;;26.59;38.33;100398.64;2390912;73;22326;-74
2023/07/21 11:15:56;;;;;;;;;;;;;;;26.59;38.30;100404.92;2361699;74;51459;-74
2023/07/21 11:18:58;;;;;;;;;;;;;;;26.57;38.33;100397.55;2388347;74;52541;-74
2023/07/21 11:22:00;;;;;;;;;;;;;;;26.57;38.33;100398.91;2394711;74;51475;-75
2023/07/21 11:25:09;;;;;;;;;;;;;;;26.58;38.33;100396.47;2394618;74;51431;-74
2023/07/21 11:28:11;;;;;;;;;;;;;;;26.56;38.35;100391.81;2361672;74;22428;-74
2023/07/21 11:31:18;;;;;;;;;;;;;;;26.57;38.33;100388.59;2388445;74;51254;-76
2023/07/21 11:34:20;;;;;;;;;;;;;;;26.57;38.35;100385.87;2361576;74;51656;-74
2023/07/21 11:37:21;;;;;;;;;;;;;;;26.55;38.36;100385.29;2394314;74;50818;-75
2023/07/21 11:40:25;;;;;;;;;;;;;;;26.55;38.38;100382.03;2354012;74;51434;-75
2023/07/21 11:43:26;;;;;;;;;;;;;;;26.54;38.40;100378.20;2336570;73;51080;-74
2023/07/21 11:46:28;;;;;;;;;;;;;;;26.54;38.38;100371.41;2391067;74;52234;-76
2023/07/21 11:49:29;;;;;;;;;;;;;;;26.53;38.39;100371.95;2391140;73;50746;-75
2023/07/21 11:52:33;;;;;;;;;;;;;;;26.53;38.38;100371.95;2397296;74;50216;-74
2023/07/21 11:55:35;;;;;;;;;;;;;;;26.53;38.40;100377.92;2397401;73;24788;-75
2023/07/21 11:58:36;;;;;;;;;;;;;;;26.54;38.37;100380.41;2391048;73;50444;-75
2023/07/21 12:01:38;;;;;;;;;;;;;;;26.55;38.36;100381.22;2391306;74;50648;-74
2023/07/21 12:04:40;;;;;;;;;;;;;;;26.53;38.39;100380.09;2391168;73;52455;-74
2023/07/21 12:07:42;;;;;;;;;;;;;;;26.52;38.40;100376.25;2390930;73;52351;-74
2023/07/21 12:10:44;;;;;;;;;;;;;;;26.51;38.39;100376.76;2382552;73;51529;-74
2023/07/21 12:13:45;;;;;;;;;;;;;;;26.49;38.41;100377.56;2395662;73;51440;-75
2023/07/21 12:16:47;;;;;;;;;;;;;;;26.49;38.41;100378.38;2360961;74;51550;-74
2023/07/21 12:19:48;;;;;;;;;;;;;;;26.48;38.38;100379.42;2388968;74;52352;-74
2023/07/21 12:22:50;;;;;;;;;;;;;;;26.49;38.42;100374.84;2361233;74;51487;-74
2023/07/21 12:25:52;;;;;;;;;;;;;;;26.48;38.42;100367.76;2394710;73;50315;-75
2023/07/21 12:28:53;;;;;;;;;;;;;;;26.48;38.43;100370.47;2361077;74;51576;-74
2023/07/21 12:31:55;;;;;;;;;;;;;;;26.48;38.44;100381.33;2335823;74;50755;-76
2023/07/21 12:34:57;;;;;;;;;;;;;;;26.47;38.44;100371.55;2362422;74;50531;-74
2023/07/21 12:37:59;;;;;;;;;;;;;;;26.47;38.43;100374.26;2396033;73;51562;-75
2023/07/21 12:41:00;;;;;;;;;;;;;;;26.46;38.44;100376.16;2363138;74;50709;-75
2023/07/21 12:44:02;;;;;;;;;;;;;;;26.45;38.46;100379.09;2336319;74;51655;-74
2023/07/21 12:47:04;;;;;;;;;;;;;;;26.45;38.45;100374.48;2362466;74;51495;-75
2023/07/21 12:50:07;;;;;;;;;;;;;;;26.47;38.44;100378.33;2362497;74;50177;-75
2023/07/21 12:53:08;;;;;;;;;;;;;;;26.47;38.39;100371.55;2396105;74;50139;-77
2023/07/21 12:56:10;;;;;;;;;;;;;;;26.47;38.44;100370.19;2389360;73;51121;-73
2023/07/21 12:59:12;;;;;;;;;;;;;;;26.46;38.41;100361.74;2395917;74;50294;-73
2023/07/21 13:02:13;;;;;;;;;;;;;;;26.46;38.45;100357.67;2396069;74;50637;-75
2023/07/21 13:05:15;;;;;;;;;;;;;;;26.45;38.45;100362.28;2395898;74;50667;-77
2023/07/21 13:08:17;;;;;;;;;;;;;;;26.46;38.44;100364.45;2362084;74;50490;-75
2023/07/21 13:11:18;;;;;;;;;;;;;;;26.45;38.45;100355.50;2386703;74;50647;-74
2023/07/21 13:14:20;;;;;;;;;;;;;;;26.46;38.42;100358.52;2396587;73;50488;-75
2023/07/21 13:17:21;;;;;;;;;;;;;;;26.46;38.44;100360.39;2395619;74;50720;-76
2023/07/21 13:20:23;;;;;;;;;;;;;;;26.46;38.45;100361.74;2390063;74;51227;-76
2023/07/21 13:23:25;;;;;;;;;;;;;;;26.46;38.44;100363.09;2362253;74;50660;-74
2023/07/21 13:26:27;;;;;;;;;;;;;;;26.46;38.44;100357.67;2395646;74;50747;-75
2023/07/21 13:29:28;;;;;;;;;;;;;;;26.45;38.45;100364.17;2395825;74;51513;-75
2023/07/21 13:32:30;;;;;;;;;;;;;;;26.45;38.43;100357.39;2390206;74;51676;-74
2023/07/21 13:35:32;;;;;;;;;;;;;;;26.45;38.46;100356.04;2361863;74;50542;-75
2023/07/21 13:38:34;;;;;;;;;;;;;;;26.44;38.46;100357.94;2394770;74;50366;-75
2023/07/21 13:41:35;;;;;;;;;;;;;;;26.42;38.46;100353.81;2384736;74;50094;-75
2023/07/21 13:44:37;;;;;;;;;;;;;;;26.43;38.45;100353.55;2389563;74;52426;-75
2023/07/21 13:47:39;;;;;;;;;;;;;;;26.42;38.45;100353.81;2361085;74;52609;-75
2023/07/21 13:50:40;;;;;;;;;;;;;;;26.43;38.47;100343.24;2394614;74;51526;-75
2023/07/21 13:53:42;;;;;;;;;;;;;;;26.43;38.45;100350.03;2394848;74;51515;-75
2023/07/21 13:56:43;;;;;;;;;;;;;;;26.43;38.43;100342.70;2388225;74;52267;-75
2023/07/21 13:59:45;;;;;;;;;;;;;;;26.44;38.44;100344.91;2394719;74;49870;-75
2023/07/21 14:02:47;;;;;;;;;;;;;;;26.44;38.43;100333.52;2394829;74;50297;-76
2023/07/21 14:05:48;;;;;;;;;;;;;;;26.44;38.45;100330.80;2394907;74;51623;-75
2023/07/21 14:08:50;;;;;;;;;;;;;;;26.45;38.44;100329.72;2334469;74;52395;-75
2023/07/21 14:11:52;;;;;;;;;;;;;;;26.46;38.42;100325.11;2384367;73;51477;-76
2023/07/21 14:14:53;;;;;;;;;;;;;;;26.47;38.43;100319.45;2395204;74;50794;-76
2023/07/21 14:17:55;;;;;;;;;;;;;;;26.49;38.41;100313.80;2361113;74;51600;-74
2023/07/21 14:20:56;;;;;;;;;;;;;;;26.53;38.33;100311.44;2388850;74;52406;-74
2023/07/21 14:24:04;;;;;;;;;;;;;;;26.53;38.31;100308.19;2394802;74;51484;-75
2023/07/21 14:27:04;;;;;;;;;;;;;;;26.52;38.33;100301.13;2394694;74;22976;-74
2023/07/21 14:30:06;;;;;;;;;;;;;;;26.54;38.29;100296.80;2361210;74;50117;-74
2023/07/21 14:33:08;;;;;;;;;;;;;;;26.55;38.30;100284.35;2388933;74;51304;-74
2023/07/21 14:36:09;;;;;;;;;;;;;;;26.55;38.30;100280.82;2394588;74;50193;-75
2023/07/21 14:39:12;;;;;;;;;;;;;;;26.56;38.30;100287.34;2361326;74;50773;-74
2023/07/21 14:42:14;;;;;;;;;;;;;;;26.55;38.35;100278.92;2383817;74;51623;-74
2023/07/21 14:45:16;;;;;;;;;;;;;;;26.54;38.34;100266.44;2389033;74;51108;-74
2023/07/21 14:48:17;;;;;;;;;;;;;;;26.55;38.33;100268.61;2361028;74;50355;-74
2023/07/21 14:51:19;;;;;;;;;;;;;;;26.54;38.38;100270.51;2394730;74;50402;-74
2023/07/21 14:54:21;;;;;;;;;;;;;;;26.53;38.41;100272.91;2394572;74;50547;-74
2023/07/21 14:57:23;;;;;;;;;;;;;;;26.54;38.38;100275.09;2388400;74;51696;-75
2023/07/21 15:00:25;;;;;;;;;;;;;;;26.52;38.40;100273.99;2394848;74;50374;-75
2023/07/21 15:03:26;;;;;;;;;;;;;;;26.53;38.40;100266.67;2361401;74;51562;-74
2023/07/21 15:06:28;;;;;;;;;;;;;;;26.54;38.40;100273.22;2394527;74;50271;-74
2023/07/21 15:09:29;;;;;;;;;;;;;;;26.54;38.39;100266.95;2388703;74;52464;-74
2023/07/21 15:12:31;;;;;;;;;;;;;;;26.53;38.42;100259.89;2371986;74;51477;-74
2023/07/21 15:15:34;;;;;;;;;;;;;;;26.53;38.43;100265.31;2392556;74;50409;-75
2023/07/21 15:18:36;;;;;;;;;;;;;;;26.52;38.45;100267.21;2394537;74;51573;-75
2023/07/21 15:21:38;;;;;;;;;;;;;;;26.54;38.42;100262.88;2388752;74;50119;-74
2023/07/21 15:24:39;;;;;;;;;;;;;;;26.53;38.42;100255.81;2361234;74;50749;-74
2023/07/21 15:27:41;;;;;;;;;;;;;;;26.54;38.42;100264.23;2361048;74;51555;-74
2023/07/21 15:30:42;;;;;;;;;;;;;;;26.54;38.42;100265.59;2394701;73;51561;-74
2023/07/21 15:33:45;;;;;;;;;;;;;;;26.55;38.42;100255.86;2334647;74;52381;-74